createdAt,value
2018-01-14T00:01:04.898Z,29.95
2018-01-14T00:03:33.388Z,27.73
2018-01-14T00:06:01.935Z,29.65
2018-01-14T00:08:29.665Z,23.30
2018-01-14T00:10:57.390Z,25.00
2018-01-14T00:13:25.122Z,23.30
2018-01-14T00:15:52.857Z,25.05
2018-01-14T00:18:20.600Z,21.58
2018-01-14T00:20:49.089Z,25.80
2018-01-14T00:23:17.587Z,22.95
2018-01-14T00:25:45.488Z,24.10
2018-01-14T00:28:13.214Z,19.50
2018-01-14T00:30:40.946Z,24.70
2018-01-14T00:33:09.453Z,20.35
2018-01-14T00:35:37.203Z,24.10
2018-01-14T00:38:05.733Z,23.38
2018-01-14T00:40:33.463Z,21.85
2018-01-14T00:43:01.246Z,22.33
2018-01-14T00:45:28.985Z,22.40
2018-01-14T00:47:57.485Z,26.92
2018-01-14T00:50:25.221Z,21.85
2018-01-14T00:52:53.872Z,23.30
2018-01-14T00:55:21.612Z,22.00
2018-01-14T00:57:49.349Z,22.95
2018-01-14T01:00:17.847Z,22.83
2018-01-14T01:02:45.649Z,27.48
2018-01-14T01:05:13.381Z,22.40
2018-01-14T01:07:41.134Z,24.35
2018-01-14T01:10:08.857Z,22.67
2018-01-14T01:12:36.606Z,24.10
2018-01-14T01:15:04.473Z,23.40
2018-01-14T01:17:32.340Z,25.88
2018-01-14T01:20:00.209Z,23.83
2018-01-14T01:22:27.927Z,26.10
2018-01-14T01:24:55.645Z,23.95
2018-01-14T01:27:23.386Z,26.05
2018-01-14T01:29:51.110Z,24.40
2018-01-14T01:32:19.585Z,22.87
2018-01-14T01:34:48.085Z,24.77
2018-01-14T01:37:15.805Z,23.60
2018-01-14T01:39:43.513Z,18.70
2018-01-14T01:42:11.255Z,26.52
2018-01-14T01:44:39.746Z,23.35
2018-01-14T01:47:08.234Z,24.40
2018-01-14T01:49:36.713Z,23.87
2018-01-14T01:52:04.438Z,19.80
2018-01-14T01:54:32.153Z,20.25
2018-01-14T01:56:59.958Z,23.48
2018-01-14T01:59:27.825Z,22.45
2018-01-14T02:01:55.555Z,23.73
2018-01-14T02:04:23.270Z,26.95
2018-01-14T02:06:51.120Z,25.62
2018-01-14T02:09:18.842Z,27.27
2018-01-14T02:11:46.653Z,24.00
2018-01-14T02:14:14.361Z,24.60
2018-01-14T02:16:42.853Z,23.85
2018-01-14T02:19:10.597Z,31.30
2018-01-14T02:21:39.109Z,25.35
2018-01-14T02:24:06.834Z,27.73
2018-01-14T02:26:34.553Z,27.37
2018-01-14T02:29:02.284Z,26.45
2018-01-14T02:31:30.814Z,25.50
2018-01-14T02:33:58.684Z,21.10
2018-01-14T02:36:26.552Z,27.45
2018-01-14T02:38:54.289Z,26.02
2018-01-14T02:41:22.034Z,25.30
2018-01-14T02:43:49.772Z,27.83
2018-01-14T02:46:17.612Z,26.83
2018-01-14T02:48:46.401Z,26.12
2018-01-14T02:51:14.268Z,26.70
2018-01-14T02:53:42.135Z,26.58
2018-01-14T02:56:10.010Z,29.77
2018-01-14T02:58:37.869Z,25.35
2018-01-14T03:01:05.737Z,27.48
2018-01-14T03:03:33.466Z,26.83
2018-01-14T03:06:01.270Z,30.95
2018-01-14T03:08:29.134Z,25.37
2018-01-14T03:10:56.865Z,28.23
2018-01-14T03:13:24.585Z,31.75
2018-01-14T03:15:52.428Z,26.83
2018-01-14T03:18:20.296Z,26.15
2018-01-14T03:20:48.045Z,31.73
2018-01-14T03:23:15.777Z,29.63
2018-01-14T03:25:43.548Z,28.62
2018-01-14T03:28:11.357Z,25.17
2018-01-14T03:30:39.223Z,30.05
2018-01-14T03:33:07.092Z,26.12
2018-01-14T03:35:34.821Z,26.95
2018-01-14T03:38:02.649Z,29.77
2018-01-14T03:40:30.488Z,30.37
2018-01-14T03:42:58.354Z,32.95
2018-01-14T03:45:26.225Z,29.63
2018-01-14T03:47:54.090Z,31.58
2018-01-14T03:50:21.805Z,32.05
2018-01-14T03:52:50.553Z,33.78
2018-01-14T03:55:18.407Z,29.02
2018-01-14T03:57:46.275Z,32.83
2018-01-14T04:00:14.044Z,32.90
2018-01-14T04:02:41.772Z,35.28
2018-01-14T04:05:09.501Z,31.52
2018-01-14T04:07:37.975Z,34.13
2018-01-14T04:10:05.817Z,35.10
2018-01-14T04:12:33.684Z,39.30
2018-01-14T04:15:01.394Z,30.02
2018-01-14T04:17:29.112Z,36.40
2018-01-14T04:19:56.817Z,33.88
2018-01-14T04:22:25.292Z,38.63
2018-01-14T04:24:54.002Z,37.47
2018-01-14T04:27:21.740Z,37.92
2018-01-14T04:29:50.221Z,36.47
2018-01-14T04:32:18.695Z,33.10
2018-01-14T04:34:46.537Z,34.95
2018-01-14T04:37:14.405Z,32.60
2018-01-14T04:39:42.274Z,36.13
2018-01-14T04:42:10.140Z,37.83
2018-01-14T04:44:37.853Z,38.95
2018-01-14T04:47:05.566Z,40.78
2018-01-14T04:49:33.945Z,36.75
2018-01-14T04:52:01.685Z,37.50
2018-01-14T04:54:29.401Z,41.20
2018-01-14T04:56:57.117Z,40.85
2018-01-14T04:59:24.826Z,35.97
2018-01-14T05:01:52.565Z,34.80
2018-01-14T05:04:20.278Z,36.20
2018-01-14T05:06:48.754Z,34.90
2018-01-14T05:09:17.399Z,32.63
2018-01-14T05:11:45.265Z,36.45
2018-01-14T05:14:13.133Z,36.63
2018-01-14T05:16:43.072Z,37.25
2018-01-14T05:19:11.018Z,39.45
2018-01-14T05:21:38.884Z,40.15
2018-01-14T05:24:06.604Z,36.65
2018-01-14T05:26:35.078Z,36.83
2018-01-14T05:29:03.570Z,34.58
2018-01-14T05:31:31.282Z,35.60
2018-01-14T05:33:58.999Z,39.53
2018-01-14T05:36:26.745Z,43.45
2018-01-14T05:38:55.234Z,34.53
2018-01-14T05:41:23.871Z,42.97
2018-01-14T05:43:51.738Z,35.20
2018-01-14T05:46:19.454Z,37.92
2018-01-14T05:48:47.268Z,38.42
2018-01-14T05:51:14.972Z,36.72
2018-01-14T05:53:43.449Z,44.15
2018-01-14T05:56:11.931Z,44.30
2018-01-14T05:58:40.404Z,38.78
2018-01-14T06:01:08.113Z,35.03
2018-01-14T06:03:35.846Z,40.30
2018-01-14T06:06:04.540Z,33.75
2018-01-14T06:08:33.000Z,35.92
2018-01-14T06:11:00.712Z,39.63
2018-01-14T06:13:28.464Z,38.45
2018-01-14T06:15:56.268Z,36.33
2018-01-14T06:18:25.826Z,36.83
2018-01-14T06:20:56.087Z,34.72
2018-01-14T06:23:25.340Z,36.33
2018-01-14T06:25:55.349Z,32.15
2018-01-14T06:28:23.838Z,36.80
2018-01-14T06:30:52.317Z,35.88
2018-01-14T06:33:20.042Z,36.17
2018-01-14T06:35:47.745Z,38.15
2018-01-14T06:38:16.245Z,32.83
2018-01-14T06:40:43.959Z,35.05
2018-01-14T06:43:11.674Z,35.58
2018-01-14T06:45:39.381Z,36.15
2018-01-14T06:48:08.606Z,33.92
2018-01-14T06:50:36.651Z,33.53
2018-01-14T06:53:04.516Z,37.85
2018-01-14T06:55:32.236Z,37.22
2018-01-14T06:57:59.949Z,35.38
2018-01-14T07:00:27.662Z,33.03
2018-01-14T07:02:55.374Z,36.80
2018-01-14T07:05:23.096Z,36.13
2018-01-14T07:07:51.703Z,37.40
2018-01-14T07:10:19.427Z,33.10
2018-01-14T07:12:47.902Z,32.88
2018-01-14T07:15:16.382Z,35.60
2018-01-14T07:17:44.869Z,32.75
2018-01-14T07:20:13.515Z,35.20
2018-01-14T07:22:41.381Z,28.85
2018-01-14T07:25:09.249Z,35.00
2018-01-14T07:27:37.116Z,31.62
2018-01-14T07:30:04.830Z,32.35
2018-01-14T07:32:33.321Z,30.27
2018-01-14T07:35:05.696Z,34.30
2018-01-14T07:37:36.543Z,34.35
2018-01-14T07:40:06.872Z,31.20
2018-01-14T07:42:44.508Z,33.83
2018-01-14T07:45:13.016Z,37.00
2018-01-14T07:47:41.498Z,30.15
2018-01-14T07:50:09.985Z,31.90
2018-01-14T07:52:40.572Z,34.55
2018-01-14T07:55:11.843Z,36.50
2018-01-14T07:57:40.503Z,25.27
2018-01-14T08:00:08.371Z,33.63
2018-01-14T08:02:36.237Z,34.28
2018-01-14T08:05:04.105Z,29.17
2018-01-14T08:07:31.972Z,32.58
2018-01-14T08:09:59.840Z,36.42
2018-01-14T08:12:27.707Z,29.98
2018-01-14T08:14:55.414Z,28.73
2018-01-14T08:17:24.056Z,31.60
2018-01-14T08:19:51.924Z,27.73
2018-01-14T08:22:19.793Z,31.12
2018-01-14T08:24:47.658Z,30.20
2018-01-14T08:27:15.526Z,30.75
2018-01-14T08:29:43.392Z,37.78
2018-01-14T08:32:11.260Z,23.73
2018-01-14T08:34:39.128Z,31.40
2018-01-14T08:37:06.995Z,28.17
2018-01-14T08:39:34.862Z,32.88
2018-01-14T08:42:02.731Z,29.12
2018-01-14T08:44:30.597Z,29.05
2018-01-14T08:46:58.464Z,27.45
2018-01-14T08:49:26.332Z,28.10
2018-01-14T08:51:54.198Z,30.60
2018-01-14T08:54:22.066Z,25.77
2018-01-14T08:56:49.933Z,32.17
2018-01-14T08:59:17.800Z,31.45
2018-01-14T09:01:50.508Z,29.42
2018-01-14T09:04:18.347Z,29.58
2018-01-14T09:06:46.215Z,30.80
2018-01-14T09:09:14.083Z,29.60
2018-01-14T09:11:41.950Z,26.77
2018-01-14T09:14:09.817Z,26.80
2018-01-14T09:16:37.685Z,24.25
2018-01-14T09:19:05.554Z,35.08
2018-01-14T09:21:34.090Z,30.90
2018-01-14T09:24:01.901Z,28.55
2018-01-14T09:26:29.768Z,23.40
2018-01-14T09:28:57.635Z,22.48
2018-01-14T09:31:25.557Z,26.15
2018-01-14T09:33:54.189Z,25.58
2018-01-14T09:36:22.056Z,24.70
2018-01-14T09:38:49.778Z,27.02
2018-01-14T09:41:17.586Z,21.40
2018-01-14T09:43:45.453Z,24.60
2018-01-14T09:46:13.321Z,26.45
2018-01-14T09:48:41.188Z,23.70
2018-01-14T09:51:09.064Z,24.00
2018-01-14T09:53:36.923Z,22.58
2018-01-14T09:56:04.788Z,26.17
2018-01-14T09:58:32.657Z,19.65
2018-01-14T10:01:00.525Z,21.52
2018-01-14T10:03:28.393Z,22.58
2018-01-14T10:05:56.259Z,23.17
2018-01-14T10:08:24.128Z,23.60
2018-01-14T10:10:51.994Z,26.87
2018-01-14T10:13:19.862Z,23.35
2018-01-14T10:15:47.728Z,22.25
2018-01-14T10:18:15.596Z,21.10
2018-01-14T10:20:43.507Z,22.33
2018-01-14T10:23:12.149Z,23.38
2018-01-14T10:25:39.873Z,22.77
2018-01-14T10:28:07.679Z,22.48
2018-01-14T10:30:35.546Z,22.85
2018-01-14T10:33:03.414Z,18.23
2018-01-14T10:35:31.282Z,27.05
2018-01-14T10:37:59.150Z,25.02
2018-01-14T10:40:27.016Z,24.52
2018-01-14T10:42:54.883Z,20.37
2018-01-14T10:45:22.622Z,25.37
2018-01-14T10:47:50.517Z,20.50
2018-01-14T10:50:18.384Z,22.77
2018-01-14T10:52:46.251Z,21.35
2018-01-14T10:55:14.118Z,20.67
2018-01-14T10:57:41.985Z,20.92
2018-01-14T11:00:09.852Z,20.80
2018-01-14T11:02:37.719Z,25.20
2018-01-14T11:05:05.586Z,25.00
2018-01-14T11:07:33.449Z,24.67
2018-01-14T11:10:01.321Z,19.62
2018-01-14T11:12:29.188Z,21.15
2018-01-14T11:14:57.056Z,20.27
2018-01-14T11:17:24.922Z,20.35
2018-01-14T11:19:52.792Z,22.50
2018-01-14T11:22:20.660Z,20.00
2018-01-14T11:24:48.526Z,20.20
2018-01-14T11:27:16.395Z,20.27
2018-01-14T11:30:01.976Z,21.98
2018-01-14T11:32:29.843Z,19.48
2018-01-14T11:34:57.709Z,19.80
2018-01-14T11:37:25.598Z,20.98
2018-01-14T11:39:53.444Z,21.33
2018-01-14T11:42:21.312Z,17.42
2018-01-14T11:44:49.179Z,19.35
2018-01-14T11:47:17.046Z,21.90
2018-01-14T11:49:44.914Z,21.37
2018-01-14T11:52:12.781Z,22.35
2018-01-14T11:54:40.649Z,18.05
2018-01-14T11:57:08.515Z,15.65
2018-01-14T11:59:36.383Z,15.20
2018-01-14T12:02:04.250Z,18.48
2018-01-14T12:04:32.118Z,17.23
2018-01-14T12:06:59.984Z,17.75
2018-01-14T12:09:27.852Z,15.45
2018-01-14T12:11:55.569Z,18.92
2018-01-14T12:14:23.286Z,18.60
2018-01-14T12:16:51.032Z,17.52
2018-01-14T12:19:18.737Z,16.40
2018-01-14T12:21:46.483Z,18.45
2018-01-14T12:24:15.363Z,19.12
2018-01-14T12:26:43.088Z,17.60
2018-01-14T12:29:11.958Z,16.62
2018-01-14T12:31:40.433Z,20.67
2018-01-14T12:34:32.449Z,16.37
2018-01-14T12:37:00.161Z,18.52
2018-01-14T12:39:27.877Z,20.67
2018-01-14T12:41:55.584Z,18.90
2018-01-14T12:44:23.390Z,19.83
2018-01-14T12:46:51.261Z,18.98
2018-01-14T12:49:18.966Z,17.70
2018-01-14T12:51:47.453Z,18.30
2018-01-14T12:54:15.169Z,18.45
2018-01-14T12:56:43.034Z,19.08
2018-01-14T12:59:10.901Z,17.25
2018-01-14T13:01:38.617Z,18.40
2018-01-14T13:04:06.431Z,15.30
2018-01-14T13:06:34.140Z,16.33
2018-01-14T13:09:02.779Z,15.98
2018-01-14T13:11:30.489Z,18.95
2018-01-14T13:13:58.962Z,15.70
2018-01-14T13:16:27.453Z,15.93
2018-01-14T13:18:58.186Z,16.17
2018-01-14T13:21:26.685Z,15.57
2018-01-14T13:23:55.001Z,19.15
2018-01-14T13:26:22.868Z,16.92
2018-01-14T13:28:50.593Z,13.18
2018-01-14T13:31:18.353Z,15.80
2018-01-14T13:33:46.167Z,15.60
2018-01-14T13:36:13.907Z,19.00
2018-01-14T13:38:41.633Z,14.00
2018-01-14T13:41:10.121Z,15.55
2018-01-14T13:43:38.613Z,16.00
2018-01-14T13:46:06.579Z,13.43
2018-01-14T13:48:34.309Z,18.60
2018-01-14T13:51:02.046Z,16.55
2018-01-14T13:53:29.769Z,17.40
2018-01-14T13:55:58.264Z,12.55
2018-01-14T13:58:25.986Z,15.15
2018-01-14T14:00:53.742Z,16.33
2018-01-14T14:03:21.465Z,16.65
2018-01-14T14:05:49.221Z,14.18
2018-01-14T14:08:16.941Z,14.57
2018-01-14T14:10:44.670Z,13.60
2018-01-14T14:13:12.392Z,14.82
2018-01-14T14:15:40.941Z,16.25
2018-01-14T14:18:08.678Z,16.70
2018-01-14T14:20:36.493Z,19.05
2018-01-14T14:23:05.010Z,16.45
2018-01-14T14:25:32.730Z,14.80
2018-01-14T14:30:34.484Z,15.30
2018-01-14T14:33:02.250Z,16.62
2018-01-14T14:35:30.118Z,15.50
2018-01-14T14:37:57.889Z,18.67
2018-01-14T14:40:25.622Z,17.55
2018-01-14T14:42:53.414Z,16.00
2018-01-14T14:45:21.279Z,18.40
2018-01-14T14:47:49.146Z,18.98
2018-01-14T14:50:16.865Z,14.80
2018-01-14T14:52:44.651Z,15.65
2018-01-14T14:55:12.441Z,16.42
2018-01-14T14:57:40.308Z,16.50
2018-01-14T15:00:08.022Z,17.75
2018-01-14T15:02:37.581Z,17.23
2018-01-14T15:05:06.470Z,17.92
2018-01-14T15:07:35.260Z,18.92
2018-01-14T15:10:03.946Z,18.05
2018-01-14T15:12:31.814Z,17.90
2018-01-14T15:14:59.538Z,15.52
2018-01-14T15:17:27.447Z,17.92
2018-01-14T15:19:55.313Z,16.98
2018-01-14T15:22:23.181Z,17.33
2018-01-14T15:24:52.592Z,16.25
2018-01-14T15:27:20.450Z,17.00
2018-01-14T15:29:48.318Z,16.02
2018-01-14T15:32:16.186Z,15.85
2018-01-14T15:34:44.060Z,15.23
2018-01-14T15:37:12.842Z,16.83
2018-01-14T15:39:40.574Z,15.55
2018-01-14T15:42:08.372Z,16.15
2018-01-14T15:44:36.239Z,16.62
2018-01-14T15:47:04.106Z,15.63
2018-01-14T15:49:32.588Z,19.90
2018-01-14T15:52:00.455Z,15.02
2018-01-14T15:54:28.223Z,18.92
2018-01-14T15:56:56.088Z,17.55
2018-01-14T15:59:24.159Z,19.73
2018-01-14T16:01:52.951Z,16.33
2018-01-14T16:04:20.819Z,16.62
2018-01-14T16:06:48.691Z,15.35
2018-01-14T16:09:16.551Z,18.67
2018-01-14T16:11:44.452Z,15.55
2018-01-14T16:14:13.104Z,17.12
2018-01-14T16:16:40.972Z,16.60
2018-01-14T16:19:09.026Z,18.23
2018-01-14T16:21:36.773Z,22.60
2018-01-14T16:24:04.576Z,16.80
2018-01-14T16:26:32.441Z,18.20
2018-01-14T16:29:00.171Z,20.73
2018-01-14T16:31:27.901Z,18.25
2018-01-14T16:33:56.556Z,17.42
2018-01-14T16:36:24.423Z,16.73
2018-01-14T16:38:52.291Z,17.25
2018-01-14T16:41:20.159Z,21.30
2018-01-14T16:43:48.024Z,15.55
2018-01-14T16:46:15.894Z,14.73
2018-01-14T16:48:43.758Z,20.62
2018-01-14T16:51:11.627Z,18.52
2018-01-14T16:53:39.368Z,17.73
2018-01-14T16:56:07.261Z,18.62
2018-01-14T16:58:34.998Z,16.48
2018-01-14T17:01:02.740Z,19.12
2018-01-14T17:03:31.117Z,20.58
2018-01-14T17:05:59.035Z,17.37
2018-01-14T17:08:26.759Z,19.35
2018-01-14T17:10:54.483Z,15.50
2018-01-14T17:13:22.211Z,15.25
2018-01-14T17:15:49.952Z,15.10
2018-01-14T17:18:17.659Z,13.13
2018-01-14T17:20:45.373Z,15.18
2018-01-14T17:23:13.094Z,13.27
2018-01-14T17:25:40.837Z,12.20
2018-01-14T17:28:08.715Z,14.18
2018-01-14T17:30:36.480Z,11.77
2018-01-14T17:33:04.347Z,12.05
2018-01-14T17:35:32.215Z,14.32
2018-01-14T17:38:00.082Z,16.08
2018-01-14T17:40:27.824Z,14.48
2018-01-14T17:42:55.612Z,13.68
2018-01-14T17:45:23.483Z,19.05
2018-01-14T17:47:51.240Z,18.02
2018-01-14T17:50:18.955Z,18.27
2018-01-14T17:52:46.674Z,15.00
2018-01-14T17:55:14.538Z,16.37
2018-01-14T17:57:43.867Z,23.92
2018-01-14T18:00:11.707Z,69.85
2018-01-14T18:02:39.574Z,28.95
2018-01-14T18:05:07.441Z,24.23
2018-01-14T18:07:35.323Z,23.62
2018-01-14T18:10:03.073Z,19.58
2018-01-14T18:12:30.941Z,15.63
2018-01-14T18:14:58.652Z,16.62
2018-01-14T18:17:27.234Z,14.70
2018-01-14T18:19:55.734Z,21.10
2018-01-14T18:22:24.044Z,20.33
2018-01-14T18:24:52.736Z,20.35
2018-01-14T18:27:20.603Z,19.20
2018-01-14T18:29:48.396Z,17.15
2018-01-14T18:32:16.183Z,18.02
2018-01-14T18:34:44.666Z,18.05
2018-01-14T18:37:13.154Z,15.32
2018-01-14T18:39:40.963Z,19.75
2018-01-14T18:42:08.830Z,19.60
2018-01-14T18:44:36.552Z,16.62
2018-01-14T18:47:04.360Z,19.05
2018-01-14T18:49:32.357Z,20.80
2018-01-14T18:52:00.082Z,21.10
2018-01-14T18:54:28.013Z,21.90
2018-01-14T18:56:56.507Z,16.40
2018-01-14T18:59:24.238Z,19.12
2018-01-14T19:01:52.342Z,18.77
2018-01-14T19:04:20.073Z,19.95
2018-01-14T19:06:47.913Z,23.55
2018-01-14T19:09:15.646Z,25.50
2018-01-14T19:11:43.544Z,21.90
2018-01-14T19:14:11.413Z,21.73
2018-01-14T19:16:39.279Z,22.58
2018-01-14T19:19:07.147Z,22.60
2018-01-14T19:21:34.876Z,26.48
2018-01-14T19:24:02.611Z,21.48
2018-01-14T19:26:31.114Z,26.30
2018-01-14T19:28:58.848Z,23.23
2018-01-14T19:31:26.699Z,26.50
2018-01-14T19:33:54.559Z,23.58
2018-01-14T19:36:22.322Z,25.50
2018-01-14T19:38:50.188Z,21.62
2018-01-14T19:41:17.917Z,28.80
2018-01-14T19:43:45.717Z,30.88
2018-01-14T19:46:13.446Z,26.15
2018-01-14T19:48:41.254Z,28.83
2018-01-14T19:51:09.116Z,25.85
2018-01-14T19:53:36.982Z,24.77
2018-01-14T19:56:04.850Z,25.08
2018-01-14T19:58:32.717Z,28.67
2018-01-14T20:01:00.584Z,33.47
2018-01-14T20:03:28.452Z,29.45
2018-01-14T20:05:56.184Z,29.27
2018-01-14T20:08:24.084Z,26.80
2018-01-14T20:10:51.822Z,26.65
2018-01-14T20:13:19.565Z,26.35
2018-01-14T20:15:47.383Z,24.30
2018-01-14T20:18:15.246Z,25.17
2018-01-14T20:20:43.114Z,29.92
2018-01-14T20:23:10.846Z,27.50
2018-01-14T20:25:38.581Z,24.55
2018-01-14T20:28:07.077Z,24.55
2018-01-14T20:30:34.890Z,23.00
2018-01-14T20:33:02.757Z,23.90
2018-01-14T20:35:30.485Z,23.67
2018-01-14T20:37:58.222Z,23.92
2018-01-14T20:40:26.719Z,20.90
2018-01-14T20:42:55.223Z,25.45
2018-01-14T20:45:22.966Z,27.00
2018-01-14T20:47:50.781Z,33.67
2018-01-14T20:50:18.521Z,25.50
2018-01-14T20:52:46.255Z,30.58
2018-01-14T20:55:14.761Z,23.12
2018-01-14T20:57:42.495Z,21.30
2018-01-14T21:00:11.042Z,20.60
2018-01-14T21:02:38.907Z,20.62
2018-01-14T21:05:06.702Z,23.20
2018-01-14T21:07:34.544Z,22.62
2018-01-14T21:10:02.407Z,32.08
2018-01-14T21:12:30.147Z,23.77
2018-01-14T21:14:57.888Z,25.08
2018-01-14T21:17:25.615Z,21.98
2018-01-14T21:19:53.352Z,24.92
2018-01-14T21:22:21.087Z,19.58
2018-01-14T21:24:48.833Z,25.40
2018-01-14T21:27:17.339Z,20.83
2018-01-14T21:29:45.058Z,23.02
2018-01-14T21:32:12.904Z,23.58
2018-01-14T21:34:40.771Z,23.67
2018-01-14T21:37:08.503Z,23.90
2018-01-14T21:39:36.248Z,24.20
2018-01-14T21:42:04.888Z,25.60
2018-01-14T21:44:32.614Z,24.85
2018-01-14T21:47:00.415Z,18.50
2018-01-14T21:49:28.282Z,18.48
2018-01-14T21:51:56.149Z,17.73
2018-01-14T21:54:24.019Z,17.90
2018-01-14T21:56:52.704Z,18.92
2018-01-14T21:59:20.571Z,18.23
2018-01-14T22:01:48.294Z,19.12
2018-01-14T22:04:16.102Z,18.37
2018-01-14T22:06:43.970Z,20.55
2018-01-14T22:09:11.837Z,21.70
2018-01-14T22:11:39.703Z,22.48
2018-01-14T22:14:07.431Z,24.50
2018-01-14T22:16:35.162Z,25.23
2018-01-14T22:19:02.998Z,24.12
2018-01-14T22:21:30.865Z,23.30
2018-01-14T22:23:58.732Z,23.20
2018-01-14T22:26:26.600Z,25.60
2018-01-14T22:28:54.466Z,25.08
2018-01-14T22:31:22.334Z,24.17
2018-01-14T22:33:50.201Z,22.30
2018-01-14T22:36:18.069Z,21.85
2018-01-14T22:38:45.777Z,21.30
2018-01-14T22:41:14.271Z,27.17
2018-01-14T22:43:42.083Z,23.45
2018-01-14T22:46:10.047Z,21.92
2018-01-14T22:48:37.919Z,28.02
2018-01-14T22:51:05.784Z,26.90
2018-01-14T22:53:33.652Z,23.67
2018-01-14T22:56:01.519Z,30.05
2018-01-14T22:58:29.243Z,22.75
2018-01-14T23:00:57.151Z,29.23
2018-01-14T23:03:25.019Z,28.55
2018-01-14T23:05:52.886Z,23.67
2018-01-14T23:08:20.622Z,26.60
2018-01-14T23:10:48.444Z,26.70
2018-01-14T23:13:17.102Z,25.05
2018-01-14T23:15:44.970Z,28.20
2018-01-14T23:18:12.837Z,27.60
2018-01-14T23:20:40.705Z,25.35
2018-01-14T23:23:08.572Z,28.83
2018-01-14T23:25:36.444Z,26.73
2018-01-14T23:28:04.309Z,30.70
2018-01-14T23:30:32.174Z,24.40
2018-01-14T23:33:00.042Z,25.83
2018-01-14T23:35:27.773Z,26.65
2018-01-14T23:37:55.674Z,24.92
2018-01-14T23:40:23.541Z,20.88
2018-01-14T23:42:51.409Z,17.37
2018-01-14T23:45:19.276Z,18.00
2018-01-14T23:47:47.145Z,15.38
2018-01-14T23:50:15.011Z,15.43
2018-01-14T23:52:42.877Z,18.40
2018-01-14T23:55:10.745Z,17.77
2018-01-14T23:57:38.612Z,15.63
